createdAt,value
2018-07-25T00:01:10.794Z,96755
2018-07-25T00:02:26.672Z,96756
2018-07-25T00:03:42.543Z,96761
2018-07-25T00:04:58.523Z,96766
2018-07-25T00:06:14.454Z,96756
2018-07-25T00:07:30.361Z,96760
2018-07-25T00:08:46.271Z,96758
2018-07-25T00:10:02.166Z,96760
2018-07-25T00:11:18.071Z,96757
2018-07-25T00:12:34.012Z,96752
2018-07-25T00:13:49.913Z,96753
2018-07-25T00:15:05.845Z,96755
2018-07-25T00:16:21.736Z,96751
2018-07-25T00:17:37.662Z,96749
2018-07-25T00:18:53.568Z,96749
2018-07-25T00:20:09.451Z,96753
2018-07-25T00:21:25.376Z,96753
2018-07-25T00:22:41.241Z,96751
2018-07-25T00:23:57.178Z,96753
2018-07-25T00:25:13.085Z,96750
2018-07-25T00:26:28.957Z,96754
2018-07-25T00:27:44.872Z,96752
2018-07-25T00:29:00.739Z,96752
2018-07-25T00:30:16.605Z,96751
2018-07-25T00:31:32.501Z,96753
2018-07-25T00:32:48.416Z,96749
2018-07-25T00:34:04.305Z,96753
2018-07-25T00:35:20.154Z,96751
2018-07-25T00:36:36.052Z,96756
2018-07-25T00:37:51.950Z,96752
2018-07-25T00:39:07.934Z,96753
2018-07-25T00:40:23.849Z,96757
2018-07-25T00:41:39.735Z,96756
2018-07-25T00:42:55.585Z,96758
2018-07-25T00:44:11.555Z,96758
2018-07-25T00:45:27.458Z,96756
2018-07-25T00:46:43.347Z,96757
2018-07-25T00:47:59.282Z,96755
2018-07-25T00:49:15.162Z,96755
2018-07-25T00:50:31.021Z,96754
2018-07-25T00:51:46.917Z,96752
2018-07-25T00:53:02.817Z,96750
2018-07-25T00:54:18.707Z,96753
2018-07-25T00:55:34.573Z,96752
2018-07-25T00:56:50.455Z,96752
2018-07-25T00:58:06.485Z,96752
2018-07-25T00:59:22.434Z,96753
2018-07-25T01:00:38.295Z,96749
2018-07-25T01:01:54.185Z,96751
2018-07-25T01:03:10.066Z,96751
2018-07-25T01:04:25.963Z,96754
2018-07-25T01:05:41.887Z,96753
2018-07-25T01:06:57.778Z,96759
2018-07-25T01:08:13.663Z,96756
2018-07-25T01:09:29.572Z,96759
2018-07-25T01:10:45.487Z,96759
2018-07-25T01:12:01.336Z,96758
2018-07-25T01:13:17.231Z,96759
2018-07-25T01:14:33.127Z,96762
2018-07-25T01:15:49.058Z,96763
2018-07-25T01:17:04.901Z,96758
2018-07-25T01:18:20.805Z,96755
2018-07-25T01:19:36.774Z,96755
2018-07-25T01:20:52.675Z,96756
2018-07-25T01:22:08.586Z,96754
2018-07-25T01:23:24.458Z,96749
2018-07-25T01:24:40.341Z,96752
2018-07-25T01:25:56.206Z,96752
2018-07-25T01:27:12.109Z,96754
2018-07-25T01:28:27.999Z,96757
2018-07-25T01:29:43.881Z,96757
2018-07-25T01:30:59.796Z,96759
2018-07-25T01:32:15.672Z,96758
2018-07-25T01:33:31.554Z,96762
2018-07-25T01:34:47.437Z,96763
2018-07-25T01:36:03.359Z,96766
2018-07-25T01:37:19.241Z,96771
2018-07-25T01:38:35.145Z,96772
2018-07-25T01:39:51.027Z,96777
2018-07-25T01:41:06.937Z,96775
2018-07-25T01:42:22.864Z,96776
2018-07-25T01:43:38.771Z,96773
2018-07-25T01:44:54.664Z,96776
2018-07-25T01:46:10.600Z,96778
2018-07-25T01:47:26.486Z,96777
2018-07-25T01:48:42.401Z,96777
2018-07-25T01:49:58.329Z,96780
2018-07-25T01:51:14.221Z,96779
2018-07-25T01:52:30.157Z,96779
2018-07-25T01:53:46.035Z,96780
2018-07-25T01:55:01.935Z,96780
2018-07-25T01:56:17.846Z,96779
2018-07-25T01:57:33.737Z,96780
2018-07-25T01:58:49.622Z,96778
2018-07-25T02:00:05.546Z,96775
2018-07-25T02:01:21.504Z,96779
2018-07-25T02:02:37.309Z,96777
2018-07-25T02:03:53.218Z,96781
2018-07-25T02:05:09.108Z,96780
2018-07-25T02:06:26.024Z,96780
2018-07-25T02:07:41.950Z,96783
2018-07-25T02:08:57.817Z,96783
2018-07-25T02:10:13.707Z,96784
2018-07-25T02:11:29.593Z,96786
2018-07-25T02:12:45.483Z,96784
2018-07-25T02:14:01.357Z,96782
2018-07-25T02:15:17.217Z,96779
2018-07-25T02:16:33.093Z,96781
2018-07-25T02:17:48.995Z,96778
2018-07-25T02:19:04.860Z,96777
2018-07-25T02:20:20.781Z,96777
2018-07-25T02:21:36.714Z,96781
2018-07-25T02:22:52.775Z,96781
2018-07-25T02:24:08.641Z,96785
2018-07-25T02:25:24.546Z,96782
2018-07-25T02:26:40.439Z,96780
2018-07-25T02:27:56.358Z,96779
2018-07-25T02:29:12.238Z,96777
2018-07-25T02:30:28.144Z,96779
2018-07-25T02:31:44.023Z,96782
2018-07-25T02:32:59.949Z,96784
2018-07-25T02:34:15.894Z,96785
2018-07-25T02:35:31.783Z,96785
2018-07-25T02:36:47.693Z,96787
2018-07-25T02:38:03.642Z,96788
2018-07-25T02:39:19.552Z,96787
2018-07-25T02:40:35.475Z,96783
2018-07-25T02:41:51.355Z,96788
2018-07-25T02:43:07.263Z,96788
2018-07-25T02:44:23.174Z,96789
2018-07-25T02:45:39.045Z,96791
2018-07-25T02:46:54.922Z,96793
2018-07-25T02:48:10.814Z,96791
2018-07-25T02:49:26.707Z,96795
2018-07-25T02:50:42.625Z,96798
2018-07-25T02:51:58.508Z,96798
2018-07-25T02:53:14.430Z,96795
2018-07-25T02:54:30.346Z,96798
2018-07-25T02:55:46.256Z,96797
2018-07-25T02:57:02.266Z,96805
2018-07-25T02:58:18.052Z,96804
2018-07-25T02:59:33.944Z,96806
2018-07-25T03:00:49.857Z,96806
2018-07-25T03:02:05.737Z,96805
2018-07-25T03:03:21.636Z,96807
2018-07-25T03:04:37.634Z,96808
2018-07-25T03:05:53.562Z,96808
2018-07-25T03:07:09.468Z,96807
2018-07-25T03:08:25.406Z,96806
2018-07-25T03:09:41.269Z,96804
2018-07-25T03:10:57.216Z,96814
2018-07-25T03:12:13.106Z,96814
2018-07-25T03:13:29.008Z,96813
2018-07-25T03:14:44.877Z,96821
2018-07-25T03:16:00.811Z,96816
2018-07-25T03:17:16.721Z,96816
2018-07-25T03:18:32.673Z,96817
2018-07-25T03:19:48.536Z,96816
2018-07-25T03:21:04.418Z,96818
2018-07-25T03:22:20.328Z,96820
2018-07-25T03:23:36.216Z,96817
2018-07-25T03:24:52.111Z,96822
2018-07-25T03:26:08.009Z,96824
2018-07-25T03:27:23.901Z,96824
2018-07-25T03:28:39.770Z,96826
2018-07-25T03:29:55.669Z,96825
2018-07-25T03:31:11.603Z,96827
2018-07-25T03:32:27.470Z,96828
2018-07-25T03:33:43.338Z,96828
2018-07-25T03:35:00.205Z,96831
2018-07-25T03:36:16.061Z,96831
2018-07-25T03:37:32.007Z,96830
2018-07-25T03:38:47.868Z,96832
2018-07-25T03:40:03.801Z,96832
2018-07-25T03:41:19.723Z,96834
2018-07-25T03:42:35.590Z,96832
2018-07-25T03:43:51.538Z,96834
2018-07-25T03:45:07.418Z,96834
2018-07-25T03:46:23.292Z,96836
2018-07-25T03:47:39.174Z,96837
2018-07-25T03:48:55.050Z,96837
2018-07-25T03:50:10.924Z,96838
2018-07-25T03:51:26.817Z,96840
2018-07-25T03:52:42.739Z,96844
2018-07-25T03:53:58.630Z,96847
2018-07-25T03:55:14.512Z,96844
2018-07-25T03:56:30.406Z,96844
2018-07-25T03:57:46.333Z,96850
2018-07-25T03:59:02.221Z,96849
2018-07-25T04:00:18.124Z,96848
2018-07-25T04:01:34.028Z,96846
2018-07-25T04:02:49.941Z,96849
2018-07-25T04:04:05.853Z,96846
2018-07-25T04:05:21.804Z,96848
2018-07-25T04:06:37.750Z,96848
2018-07-25T04:07:53.674Z,96848
2018-07-25T04:09:09.574Z,96847
2018-07-25T04:10:25.468Z,96849
2018-07-25T04:11:41.368Z,96854
2018-07-25T04:12:57.269Z,96854
2018-07-25T04:14:13.164Z,96853
2018-07-25T04:15:29.126Z,96858
2018-07-25T04:16:45.052Z,96861
2018-07-25T04:18:00.937Z,96860
2018-07-25T04:19:16.836Z,96862
2018-07-25T04:20:32.705Z,96864
2018-07-25T04:21:49.681Z,96865
2018-07-25T04:23:05.585Z,96867
2018-07-25T04:24:21.487Z,96868
2018-07-25T04:25:37.374Z,96868
2018-07-25T04:26:53.299Z,96866
2018-07-25T04:28:09.212Z,96874
2018-07-25T04:29:25.102Z,96871
2018-07-25T04:30:40.998Z,96872
2018-07-25T04:31:56.939Z,96877
2018-07-25T04:33:12.815Z,96876
2018-07-25T04:34:28.728Z,96873
2018-07-25T04:35:44.641Z,96875
2018-07-25T04:37:00.627Z,96875
2018-07-25T04:38:16.552Z,96875
2018-07-25T04:39:32.476Z,96875
2018-07-25T04:40:48.436Z,96879
2018-07-25T04:42:04.355Z,96881
2018-07-25T04:43:20.322Z,96881
2018-07-25T04:44:36.265Z,96882
2018-07-25T04:45:52.214Z,96883
2018-07-25T04:47:08.152Z,96882
2018-07-25T04:48:24.123Z,96886
2018-07-25T04:49:39.988Z,96884
2018-07-25T04:50:55.882Z,96884
2018-07-25T04:52:11.778Z,96884
2018-07-25T04:53:27.683Z,96887
2018-07-25T04:54:43.569Z,96885
2018-07-25T04:55:59.476Z,96886
2018-07-25T04:57:15.402Z,96886
2018-07-25T04:58:31.290Z,96886
2018-07-25T04:59:47.179Z,96887
2018-07-25T05:02:43.600Z,96887
2018-07-25T05:03:59.567Z,96886
2018-07-25T05:05:15.500Z,96888
2018-07-25T05:06:31.477Z,96889
2018-07-25T05:07:47.395Z,96891
2018-07-25T05:09:03.305Z,96894
2018-07-25T05:10:19.201Z,96894
2018-07-25T05:11:35.138Z,96896
2018-07-25T05:12:51.054Z,96899
2018-07-25T05:14:06.941Z,96897
2018-07-25T05:15:22.797Z,96899
2018-07-25T05:16:38.702Z,96895
2018-07-25T05:17:54.713Z,96898
2018-07-25T05:19:10.611Z,96898
2018-07-25T05:20:26.533Z,96900
2018-07-25T05:21:42.517Z,96899
2018-07-25T05:22:58.433Z,96900
2018-07-25T05:24:17.171Z,96901
2018-07-25T05:25:33.097Z,96902
2018-07-25T05:26:48.990Z,96904
2018-07-25T05:28:04.923Z,96904
2018-07-25T05:29:20.813Z,96905
2018-07-25T05:30:36.677Z,96907
2018-07-25T05:31:52.602Z,96906
2018-07-25T05:33:08.510Z,96907
2018-07-25T05:34:24.403Z,96906
2018-07-25T05:35:40.282Z,96905
2018-07-25T05:36:56.185Z,96902
2018-07-25T05:38:12.167Z,96910
2018-07-25T05:39:27.999Z,96906
2018-07-25T05:40:43.895Z,96909
2018-07-25T05:41:59.789Z,96910
2018-07-25T05:43:15.732Z,96909
2018-07-25T05:44:31.667Z,96910
2018-07-25T05:45:47.617Z,96907
2018-07-25T05:47:03.505Z,96908
2018-07-25T05:48:19.415Z,96911
2018-07-25T05:49:35.293Z,96909
2018-07-25T05:50:51.192Z,96909
2018-07-25T05:52:07.073Z,96908
2018-07-25T05:53:22.965Z,96912
2018-07-25T05:54:38.840Z,96911
2018-07-25T05:55:54.738Z,96913
2018-07-25T05:57:10.615Z,96915
2018-07-25T05:58:26.522Z,96920
2018-07-25T05:59:42.414Z,96915
2018-07-25T06:00:58.310Z,96916
2018-07-25T06:02:14.253Z,96912
2018-07-25T06:03:30.214Z,96911
2018-07-25T06:04:46.119Z,96913
2018-07-25T06:06:02.074Z,96909
2018-07-25T06:07:17.913Z,96908
2018-07-25T06:08:33.843Z,96910
2018-07-25T06:09:49.687Z,96905
2018-07-25T06:11:05.595Z,96912
2018-07-25T06:12:21.498Z,96910
2018-07-25T06:13:37.345Z,96912
2018-07-25T06:14:53.228Z,96912
2018-07-25T06:16:09.124Z,96915
2018-07-25T06:17:25.015Z,96916
2018-07-25T06:18:40.923Z,96917
2018-07-25T06:19:56.818Z,96919
2018-07-25T06:21:12.697Z,96920
2018-07-25T06:22:28.639Z,96924
2018-07-25T06:23:44.516Z,96924
2018-07-25T06:25:00.420Z,96922
2018-07-25T06:26:16.360Z,96925
2018-07-25T06:27:32.265Z,96926
2018-07-25T06:28:48.167Z,96927
2018-07-25T06:30:04.051Z,96925
2018-07-25T06:31:20.067Z,96926
2018-07-25T06:32:35.884Z,96930
2018-07-25T06:33:51.794Z,96933
2018-07-25T06:35:07.687Z,96931
2018-07-25T06:36:23.639Z,96929
2018-07-25T06:37:39.663Z,96934
2018-07-25T06:38:55.581Z,96933
2018-07-25T06:40:11.485Z,96935
2018-07-25T06:41:27.390Z,96936
2018-07-25T06:42:43.337Z,96930
2018-07-25T06:43:59.252Z,96935
2018-07-25T06:45:15.146Z,96938
2018-07-25T06:46:31.094Z,96938
2018-07-25T06:47:47.004Z,96942
2018-07-25T06:49:02.920Z,96943
2018-07-25T06:50:18.812Z,96944
2018-07-25T06:51:34.765Z,96941
2018-07-25T06:52:50.658Z,96945
2018-07-25T06:54:06.554Z,96944
2018-07-25T06:55:22.434Z,96945
2018-07-25T06:56:38.364Z,96944
2018-07-25T06:57:54.254Z,96944
2018-07-25T06:59:10.148Z,96948
2018-07-25T07:00:26.045Z,96947
2018-07-25T07:01:41.962Z,96947
2018-07-25T07:02:57.874Z,96939
2018-07-25T07:04:13.829Z,96943
2018-07-25T07:05:29.709Z,96948
2018-07-25T07:06:45.669Z,96945
2018-07-25T07:08:01.531Z,96946
2018-07-25T07:09:17.432Z,96944
2018-07-25T07:10:33.353Z,96945
2018-07-25T07:11:49.325Z,96948
2018-07-25T07:13:05.212Z,96947
2018-07-25T07:14:21.111Z,96950
2018-07-25T07:15:37.020Z,96951
2018-07-25T07:16:52.962Z,96949
2018-07-25T07:18:08.854Z,96951
2018-07-25T07:19:24.747Z,96954
2018-07-25T07:20:40.660Z,96954
2018-07-25T07:21:56.660Z,96957
2018-07-25T07:23:12.572Z,96958
2018-07-25T07:24:28.521Z,96956
2018-07-25T07:25:44.413Z,96953
2018-07-25T07:27:00.316Z,96953
2018-07-25T07:28:16.237Z,96953
2018-07-25T07:29:32.156Z,96950
2018-07-25T07:30:48.090Z,96952
2018-07-25T07:32:04.123Z,96950
2018-07-25T07:33:20.106Z,96951
2018-07-25T07:34:36.001Z,96951
2018-07-25T07:35:51.892Z,96950
2018-07-25T07:37:07.784Z,96952
2018-07-25T07:38:23.687Z,96952
2018-07-25T07:39:39.593Z,96952
2018-07-25T07:40:55.487Z,96954
2018-07-25T07:42:11.414Z,96951
2018-07-25T07:43:27.312Z,96951
2018-07-25T07:44:43.250Z,96953
2018-07-25T07:45:59.147Z,96955
2018-07-25T07:47:15.024Z,96953
2018-07-25T07:48:30.957Z,96957
2018-07-25T07:49:46.874Z,96958
2018-07-25T07:51:02.833Z,96951
2018-07-25T07:52:18.745Z,96954
2018-07-25T07:53:34.669Z,96954
2018-07-25T07:54:50.658Z,96956
2018-07-25T07:56:06.535Z,96962
2018-07-25T07:57:22.441Z,96958
2018-07-25T07:58:38.347Z,96960
2018-07-25T07:59:54.444Z,96958
2018-07-25T08:01:10.350Z,96958
2018-07-25T08:02:26.366Z,96960
2018-07-25T08:03:42.263Z,96960
2018-07-25T08:04:58.213Z,96959
2018-07-25T08:06:14.086Z,96961
2018-07-25T08:07:29.991Z,96959
2018-07-25T08:08:45.919Z,96962
2018-07-25T08:10:01.854Z,96964
2018-07-25T08:11:17.812Z,96969
2018-07-25T08:12:33.759Z,96966
2018-07-25T08:13:49.785Z,96963
2018-07-25T08:15:05.846Z,96964
2018-07-25T08:16:21.855Z,96969
2018-07-25T08:17:38.000Z,96971
2018-07-25T08:18:53.813Z,96967
2018-07-25T08:20:09.752Z,96969
2018-07-25T08:21:25.621Z,96968
2018-07-25T08:22:41.534Z,96966
2018-07-25T08:23:57.494Z,96969
2018-07-25T08:25:13.435Z,96969
2018-07-25T08:26:29.364Z,96972
2018-07-25T08:27:45.318Z,96969
2018-07-25T08:29:01.248Z,96974
2018-07-25T08:30:17.159Z,96971
2018-07-25T08:31:33.077Z,96972
2018-07-25T08:32:48.959Z,96970
2018-07-25T08:34:04.882Z,96973
2018-07-25T08:35:21.793Z,96973
2018-07-25T08:36:37.763Z,96972
2018-07-25T08:37:53.706Z,96970
2018-07-25T08:39:09.625Z,96970
2018-07-25T08:40:25.564Z,96972
2018-07-25T08:41:41.510Z,96971
2018-07-25T08:42:57.413Z,96969
2018-07-25T08:44:13.324Z,96971
2018-07-25T08:45:29.321Z,96972
2018-07-25T08:46:45.256Z,96973
2018-07-25T08:48:02.135Z,96976
2018-07-25T08:49:18.023Z,96973
2018-07-25T08:50:34.004Z,96974
2018-07-25T08:51:49.914Z,96973
2018-07-25T08:53:05.844Z,96976
2018-07-25T08:54:21.774Z,96975
2018-07-25T08:55:37.676Z,96975
2018-07-25T08:56:53.571Z,96977
2018-07-25T08:58:09.512Z,96974
2018-07-25T08:59:25.434Z,96974
2018-07-25T09:00:41.325Z,96977
2018-07-25T09:01:57.325Z,96975
2018-07-25T09:03:13.122Z,96973
2018-07-25T09:04:29.108Z,96972
2018-07-25T09:05:45.033Z,96970
2018-07-25T09:07:01.044Z,96967
2018-07-25T09:08:16.936Z,96963
2018-07-25T09:09:32.863Z,96971
2018-07-25T09:10:48.892Z,96967
2018-07-25T09:12:04.827Z,96970
2018-07-25T09:13:20.767Z,96967
2018-07-25T09:14:36.769Z,96968
2018-07-25T09:15:52.839Z,96960
2018-07-25T09:17:08.715Z,96963
2018-07-25T09:18:24.609Z,96961
2018-07-25T09:19:40.649Z,96965
2018-07-25T09:20:56.517Z,96959
2018-07-25T09:22:12.435Z,96964
2018-07-25T09:23:28.319Z,96961
2018-07-25T09:24:44.236Z,96957
2018-07-25T09:26:00.196Z,96959
2018-07-25T09:27:16.107Z,96952
2018-07-25T09:28:31.997Z,96958
2018-07-25T09:29:47.980Z,96955
2018-07-25T09:31:03.915Z,96952
2018-07-25T09:32:19.816Z,96951
2018-07-25T09:33:35.752Z,96957
2018-07-25T09:34:51.615Z,96957
2018-07-25T09:36:07.537Z,96954
2018-07-25T09:37:23.443Z,96954
2018-07-25T09:38:39.335Z,96955
2018-07-25T09:39:55.237Z,96957
2018-07-25T09:41:11.152Z,96955
2018-07-25T09:42:27.070Z,96951
2018-07-25T09:43:43.006Z,96953
2018-07-25T09:44:58.883Z,96950
2018-07-25T09:46:14.820Z,96953
2018-07-25T09:47:30.748Z,96953
2018-07-25T09:48:46.724Z,96952
2018-07-25T09:50:02.624Z,96953
2018-07-25T09:51:18.561Z,96955
2018-07-25T09:52:35.468Z,96950
2018-07-25T09:53:51.394Z,96945
2018-07-25T09:55:07.351Z,96944
2018-07-25T09:56:23.333Z,96941
2018-07-25T09:57:39.256Z,96946
2018-07-25T09:58:55.339Z,96942
2018-07-25T10:00:11.287Z,96946
2018-07-25T10:01:27.210Z,96945
2018-07-25T10:02:43.143Z,96944
2018-07-25T10:03:59.115Z,96941
2018-07-25T10:05:15.110Z,96943
2018-07-25T10:06:31.036Z,96943
2018-07-25T10:07:47.042Z,96947
2018-07-25T10:09:02.983Z,96941
2018-07-25T10:10:18.903Z,96941
2018-07-25T10:11:34.836Z,96942
2018-07-25T10:12:50.728Z,96939
2018-07-25T10:14:06.635Z,96939
2018-07-25T10:15:22.598Z,96938
2018-07-25T10:16:38.519Z,96934
2018-07-25T10:17:54.409Z,96931
2018-07-25T10:19:10.331Z,96933
2018-07-25T10:20:26.222Z,96931
2018-07-25T10:21:42.148Z,96933
2018-07-25T10:22:58.066Z,96929
2018-07-25T10:24:13.979Z,96927
2018-07-25T10:25:29.872Z,96927
2018-07-25T10:26:45.843Z,96922
2018-07-25T10:28:01.809Z,96923
2018-07-25T10:29:17.734Z,96921
2018-07-25T10:30:33.630Z,96920
2018-07-25T10:31:49.596Z,96918
2018-07-25T10:33:05.609Z,96921
2018-07-25T10:34:21.441Z,96921
2018-07-25T10:35:37.360Z,96918
2018-07-25T10:36:53.404Z,96919
2018-07-25T10:38:09.327Z,96918
2018-07-25T10:39:25.233Z,96922
2018-07-25T10:40:41.145Z,96919
2018-07-25T10:41:57.109Z,96914
2018-07-25T10:43:13.034Z,96913
2018-07-25T10:44:28.999Z,96915
2018-07-25T10:45:45.002Z,96913
2018-07-25T10:47:01.086Z,96912
2018-07-25T10:48:16.972Z,96911
2018-07-25T10:49:32.907Z,96910
2018-07-25T10:50:48.824Z,96911
2018-07-25T10:52:04.790Z,96908
2018-07-25T10:53:20.777Z,96906
2018-07-25T10:54:36.677Z,96908
2018-07-25T10:55:52.660Z,96905
2018-07-25T10:57:08.562Z,96900
2018-07-25T10:58:24.434Z,96900
2018-07-25T10:59:40.327Z,96900
2018-07-25T11:02:37.107Z,96897
2018-07-25T11:03:52.982Z,96894
2018-07-25T11:05:08.896Z,96893
2018-07-25T11:06:24.826Z,96890
2018-07-25T11:07:40.748Z,96891
2018-07-25T11:08:56.701Z,96895
2018-07-25T11:10:12.631Z,96886
2018-07-25T11:11:28.552Z,96889
2018-07-25T11:12:44.478Z,96888
2018-07-25T11:14:00.418Z,96886
2018-07-25T11:15:16.319Z,96885
2018-07-25T11:16:32.252Z,96882
2018-07-25T11:17:48.211Z,96878
2018-07-25T11:19:04.133Z,96875
2018-07-25T11:20:20.077Z,96878
2018-07-25T11:21:35.944Z,96873
2018-07-25T11:22:51.932Z,96872
2018-07-25T11:24:07.813Z,96875
2018-07-25T11:25:23.739Z,96872
2018-07-25T11:26:39.637Z,96878
2018-07-25T11:27:55.554Z,96872
2018-07-25T11:29:11.441Z,96870
2018-07-25T11:30:27.374Z,96872
2018-07-25T11:31:43.279Z,96874
2018-07-25T11:32:59.271Z,96875
2018-07-25T11:34:15.192Z,96870
2018-07-25T11:35:31.099Z,96869
2018-07-25T11:36:46.969Z,96867
2018-07-25T11:38:02.972Z,96867
2018-07-25T11:39:18.913Z,96864
2018-07-25T11:40:34.793Z,96863
2018-07-25T11:41:50.703Z,96864
2018-07-25T11:43:06.639Z,96866
2018-07-25T11:44:22.624Z,96864
2018-07-25T11:45:38.573Z,96869
2018-07-25T11:46:54.519Z,96871
2018-07-25T11:48:10.572Z,96872
2018-07-25T11:49:26.546Z,96865
2018-07-25T11:50:42.485Z,96868
2018-07-25T11:51:58.394Z,96864
2018-07-25T11:53:14.372Z,96865
2018-07-25T11:54:30.307Z,96865
2018-07-25T11:55:46.256Z,96861
2018-07-25T11:57:02.117Z,96858
2018-07-25T11:58:18.136Z,96859
2018-07-25T11:59:35.044Z,96853
2018-07-25T12:00:50.920Z,96854
2018-07-25T12:02:06.846Z,96857
2018-07-25T12:03:22.787Z,96855
2018-07-25T12:04:38.717Z,96850
2018-07-25T12:05:54.664Z,96854
2018-07-25T12:07:10.646Z,96855
2018-07-25T12:08:26.585Z,96854
2018-07-25T12:09:42.659Z,96853
2018-07-25T12:10:58.577Z,96853
2018-07-25T12:12:14.512Z,96852
2018-07-25T12:13:30.428Z,96853
2018-07-25T12:14:46.392Z,96849
2018-07-25T12:16:02.333Z,96850
2018-07-25T12:17:18.262Z,96845
2018-07-25T12:18:34.224Z,96849
2018-07-25T12:19:50.219Z,96848
2018-07-25T12:21:06.169Z,96845
2018-07-25T12:22:22.057Z,96847
2018-07-25T12:23:37.978Z,96841
2018-07-25T12:24:53.983Z,96837
2018-07-25T12:26:09.916Z,96841
2018-07-25T12:27:26.855Z,96834
2018-07-25T12:28:42.746Z,96835
2018-07-25T12:29:58.779Z,96830
2018-07-25T12:31:14.777Z,96830
2018-07-25T12:32:30.715Z,96828
2018-07-25T12:33:46.678Z,96827
2018-07-25T12:35:02.632Z,96828
2018-07-25T12:36:18.653Z,96828
2018-07-25T12:37:34.582Z,96823
2018-07-25T12:38:50.525Z,96823
2018-07-25T12:40:06.444Z,96831
2018-07-25T12:41:22.410Z,96834
2018-07-25T12:42:38.329Z,96825
2018-07-25T12:43:54.394Z,96831
2018-07-25T12:45:10.402Z,96825
2018-07-25T12:46:26.459Z,96827
2018-07-25T12:47:42.470Z,96826
2018-07-25T12:48:58.388Z,96824
2018-07-25T12:50:14.294Z,96823
2018-07-25T12:51:30.250Z,96821
2018-07-25T12:52:46.120Z,96815
2018-07-25T12:54:02.264Z,96814
2018-07-25T12:55:18.081Z,96811
2018-07-25T12:56:34.021Z,96813
2018-07-25T12:57:49.963Z,96807
2018-07-25T12:59:05.877Z,96807
2018-07-25T13:00:21.846Z,96810
2018-07-25T13:01:37.821Z,96809
2018-07-25T13:02:53.808Z,96807
2018-07-25T13:04:09.663Z,96809
2018-07-25T13:07:06.111Z,96802
2018-07-25T13:08:21.997Z,96796
2018-07-25T13:09:37.887Z,96795
2018-07-25T13:10:53.817Z,96796
2018-07-25T13:12:09.779Z,96799
2018-07-25T13:13:25.697Z,96798
2018-07-25T13:14:41.619Z,96797
2018-07-25T13:15:57.650Z,96803
2018-07-25T13:17:13.470Z,96803
2018-07-25T13:18:29.397Z,96803
2018-07-25T13:19:45.304Z,96796
2018-07-25T13:21:01.189Z,96790
2018-07-25T13:22:17.141Z,96793
2018-07-25T13:23:33.020Z,96788
2018-07-25T13:24:48.945Z,96789
2018-07-25T13:26:04.830Z,96786
2018-07-25T13:27:20.728Z,96790
2018-07-25T13:28:36.637Z,96787
2018-07-25T13:29:52.541Z,96786
2018-07-25T13:31:09.423Z,96779
2018-07-25T13:32:25.345Z,96781
2018-07-25T13:33:41.231Z,96777
2018-07-25T13:34:57.190Z,96777
2018-07-25T13:36:13.123Z,96769
2018-07-25T13:37:29.003Z,96773
2018-07-25T13:38:44.892Z,96771
2018-07-25T13:40:00.770Z,96769
2018-07-25T13:41:16.635Z,96770
2018-07-25T13:42:32.523Z,96769
2018-07-25T13:43:48.454Z,96767
2018-07-25T13:45:04.374Z,96766
2018-07-25T13:46:20.408Z,96763
2018-07-25T13:47:36.297Z,96766
2018-07-25T13:48:52.192Z,96769
2018-07-25T13:50:08.064Z,96764
2018-07-25T13:51:23.972Z,96764
2018-07-25T13:52:39.880Z,96763
2018-07-25T13:53:55.769Z,96760
2018-07-25T13:55:11.666Z,96752
2018-07-25T13:56:27.560Z,96751
2018-07-25T13:57:43.414Z,96753
2018-07-25T13:58:59.306Z,96754
2018-07-25T14:00:16.228Z,96751
2018-07-25T14:01:33.098Z,96750
2018-07-25T14:02:49.029Z,96751
2018-07-25T14:04:04.933Z,96754
2018-07-25T14:05:20.935Z,96753
2018-07-25T14:06:36.719Z,96752
2018-07-25T14:07:52.773Z,96743
2018-07-25T14:09:08.692Z,96742
2018-07-25T14:10:24.604Z,96740
2018-07-25T14:11:40.523Z,96738
2018-07-25T14:12:56.386Z,96736
2018-07-25T14:14:12.269Z,96740
2018-07-25T14:15:28.174Z,96734
2018-07-25T14:16:44.080Z,96735
2018-07-25T14:18:00.043Z,96733
2018-07-25T14:19:15.888Z,96734
2018-07-25T14:20:31.796Z,96738
2018-07-25T14:21:47.688Z,96736
2018-07-25T14:23:03.596Z,96741
2018-07-25T14:24:19.582Z,96740
2018-07-25T14:25:35.373Z,96738
2018-07-25T14:26:51.475Z,96735
2018-07-25T14:28:07.266Z,96740
2018-07-25T14:29:23.211Z,96730
2018-07-25T14:30:39.219Z,96735
2018-07-25T14:31:55.025Z,96728
2018-07-25T14:33:10.917Z,96734
2018-07-25T14:34:26.849Z,96735
2018-07-25T14:35:42.919Z,96736
2018-07-25T14:36:58.864Z,96736
2018-07-25T14:38:14.779Z,96740
2018-07-25T14:39:30.689Z,96739
2018-07-25T14:40:46.604Z,96741
2018-07-25T14:42:02.525Z,96740
2018-07-25T14:43:18.511Z,96740
2018-07-25T14:44:34.442Z,96738
2018-07-25T14:45:50.371Z,96729
2018-07-25T14:47:06.299Z,96730
2018-07-25T14:48:22.149Z,96731
2018-07-25T14:49:38.034Z,96727
2018-07-25T14:50:53.890Z,96723
2018-07-25T14:52:09.776Z,96722
2018-07-25T14:53:25.668Z,96727
2018-07-25T14:54:41.558Z,96722
2018-07-25T14:55:57.505Z,96723
2018-07-25T14:57:13.410Z,96719
2018-07-25T14:58:29.322Z,96717
2018-07-25T14:59:45.265Z,96717
2018-07-25T15:01:01.251Z,96717
2018-07-25T15:02:17.205Z,96715
2018-07-25T15:03:33.085Z,96717
2018-07-25T15:04:49.065Z,96716
2018-07-25T15:06:05.040Z,96717
2018-07-25T15:07:20.951Z,96717
2018-07-25T15:08:36.912Z,96720
2018-07-25T15:09:52.790Z,96716
2018-07-25T15:11:08.663Z,96720
2018-07-25T15:12:24.595Z,96715
2018-07-25T15:13:40.480Z,96718
2018-07-25T15:14:56.371Z,96712
2018-07-25T15:16:12.306Z,96717
2018-07-25T15:17:28.238Z,96717
2018-07-25T15:18:44.194Z,96728
2018-07-25T15:20:00.172Z,96721
2018-07-25T15:21:16.137Z,96721
2018-07-25T15:22:32.068Z,96722
2018-07-25T15:25:32.571Z,96719
2018-07-25T15:26:48.511Z,96714
2018-07-25T15:28:04.437Z,96719
2018-07-25T15:29:20.401Z,96717
2018-07-25T15:30:36.271Z,96717
2018-07-25T15:31:52.246Z,96719
2018-07-25T15:33:08.345Z,96719
2018-07-25T15:34:24.289Z,96716
2018-07-25T15:35:40.279Z,96712
2018-07-25T15:36:56.214Z,96711
2018-07-25T15:38:12.316Z,96709
2018-07-25T15:39:28.295Z,96707
2018-07-25T15:40:44.278Z,96708
2018-07-25T15:42:00.240Z,96705
2018-07-25T15:43:17.111Z,96707
2018-07-25T15:44:33.035Z,96707
2018-07-25T15:45:48.957Z,96708
2018-07-25T15:47:04.963Z,96706
2018-07-25T15:48:20.861Z,96702
2018-07-25T15:49:36.774Z,96708
2018-07-25T15:50:52.714Z,96707
2018-07-25T15:52:09.713Z,96702
2018-07-25T15:53:25.628Z,96707
2018-07-25T15:54:41.572Z,96703
2018-07-25T15:55:57.530Z,96708
2018-07-25T15:57:13.524Z,96704
2018-07-25T15:58:29.483Z,96701
2018-07-25T15:59:45.519Z,96704
2018-07-25T16:01:01.447Z,96706
2018-07-25T16:02:17.491Z,96707
2018-07-25T16:03:33.523Z,96699
2018-07-25T16:04:49.475Z,96701
2018-07-25T16:06:05.448Z,96705
2018-07-25T16:07:21.470Z,96705
2018-07-25T16:08:37.406Z,96700
2018-07-25T16:09:53.455Z,96701
2018-07-25T16:11:09.323Z,96700
2018-07-25T16:12:25.275Z,96701
2018-07-25T16:13:41.173Z,96697
2018-07-25T16:14:57.125Z,96698
2018-07-25T16:16:13.027Z,96694
2018-07-25T16:17:28.948Z,96690
2018-07-25T16:18:44.822Z,96690
2018-07-25T16:20:00.733Z,96692
2018-07-25T16:21:16.660Z,96683
2018-07-25T16:22:32.626Z,96685
2018-07-25T16:23:48.516Z,96683
2018-07-25T16:25:04.499Z,96681